Time;durP1;ratioP1;P1;durP2;ratioP2;P2;SDS_P1;SDS_P2;PMS_P1;PMS_P2;Temp;Humidity;BMP_temperature;BMP_pressure;BME280_temperature;BME280_humidity;BME280_pressure;Samples;Min_cycle;Max_cycle;Signal;HPM_P1;HPM_P2
2021/06/26 00:02:19;;;;;;;5.13;4.63;;;;;;;;;;5013356;28;20795;-59
2021/06/26 00:04:46;;;;;;;5.53;4.50;;;;;;;;;;5013603;28;20457;-58
2021/06/26 00:07:14;;;;;;;4.87;4.47;;;;;;;;;;5013703;28;20620;-59
2021/06/26 00:09:41;;;;;;;5.00;4.50;;;;;;;;;;5013409;28;20450;-59
2021/06/26 00:12:08;;;;;;;6.23;4.10;;;;;;;;;;5013453;28;20441;-59
2021/06/26 00:14:36;;;;;;;6.03;4.67;;;;;;;;;;5013755;28;20453;-58
2021/06/26 00:17:05;;;;;;;4.50;4.10;;;;;;;;;;5013571;28;20469;-59
2021/06/26 00:19:32;;;;;;;4.40;3.93;;;;;;;;;;5013535;28;20446;-59
2021/06/26 00:21:59;;;;;;;5.03;4.53;;;;;;;;;;5015611;28;20446;-58
2021/06/26 00:24:26;;;;;;;4.57;4.17;;;;;;;;;;5018900;28;20504;-58
2021/06/26 00:26:54;;;;;;;4.80;4.30;;;;;;;;;;5020184;28;20462;-58
2021/06/26 00:29:21;;;;;;;4.80;4.40;;;;;;;;;;5017872;28;20500;-59
2021/06/26 00:31:48;;;;;;;6.63;4.10;;;;;;;;;;5017093;28;20495;-59
2021/06/26 00:34:17;;;;;;;4.60;4.20;;;;;;;;;;5017178;28;20481;-59
2021/06/26 00:36:44;;;;;;;4.53;4.13;;;;;;;;;;5017100;28;20485;-58
2021/06/26 00:39:11;;;;;;;4.53;4.00;;;;;;;;;;5017290;28;20442;-59
2021/06/26 00:41:38;;;;;;;5.87;4.23;;;;;;;;;;5017112;28;20453;-58
2021/06/26 00:44:08;;;;;;;4.90;4.50;;;;;;;;;;5017176;28;20508;-59
2021/06/26 00:46:35;;;;;;;5.27;4.03;;;;;;;;;;5016974;28;20836;-58
2021/06/26 00:49:03;;;;;;;4.67;4.23;;;;;;;;;;5016938;28;20504;-58
2021/06/26 00:51:31;;;;;;;5.13;4.73;;;;;;;;;;5016648;28;21004;-59
2021/06/26 00:53:59;;;;;;;5.63;4.77;;;;;;;;;;5016866;28;20485;-59
2021/06/26 00:56:26;;;;;;;5.07;4.57;;;;;;;;;;5016626;28;20988;-58
2021/06/26 00:58:55;;;;;;;4.20;3.80;;;;;;;;;;5016903;28;20446;-58
2021/06/26 01:01:22;;;;;;;6.50;4.10;;;;;;;;;;5016802;28;20504;-59
2021/06/26 01:03:50;;;;;;;5.13;4.63;;;;;;;;;;5016504;28;20442;-60
2021/06/26 01:06:17;;;;;;;5.77;4.77;;;;;;;;;;5016892;28;20466;-59
2021/06/26 01:08:46;;;;;;;5.60;4.77;;;;;;;;;;5016837;28;20925;-60
2021/06/26 01:11:13;;;;;;;5.20;4.80;;;;;;;;;;5016745;28;20445;-59
2021/06/26 01:13:41;;;;;;;4.80;4.40;;;;;;;;;;5016605;28;20551;-59
2021/06/26 01:16:08;;;;;;;4.90;4.10;;;;;;;;;;5016714;28;20520;-60
2021/06/26 01:18:35;;;;;;;6.77;4.87;;;;;;;;;;5016343;28;21007;-59
2021/06/26 01:21:03;;;;;;;4.90;4.40;;;;;;;;;;5016428;28;20940;-59
2021/06/26 01:23:31;;;;;;;4.40;4.07;;;;;;;;;;5016756;28;20445;-59
2021/06/26 01:25:59;;;;;;;4.83;4.33;;;;;;;;;;5016505;28;20441;-58
2021/06/26 01:28:26;;;;;;;5.30;4.80;;;;;;;;;;5016319;28;20861;-59
2021/06/26 01:30:53;;;;;;;5.77;5.27;;;;;;;;;;5016339;28;20450;-59
2021/06/26 01:33:20;;;;;;;5.20;4.70;;;;;;;;;;5016328;28;20486;-59
2021/06/26 01:35:48;;;;;;;5.33;4.53;;;;;;;;;;5015356;28;21011;-59
2021/06/26 01:38:15;;;;;;;5.43;4.23;;;;;;;;;;5015804;28;20524;-57
2021/06/26 01:40:44;;;;;;;5.57;5.07;;;;;;;;;;5016206;28;20454;-60
2021/06/26 01:43:13;;;;;;;7.00;4.70;;;;;;;;;;5015733;28;20496;-60
2021/06/26 01:45:40;;;;;;;4.83;4.43;;;;;;;;;;5016121;28;20537;-59
2021/06/26 01:48:08;;;;;;;5.37;4.50;;;;;;;;;;5015629;28;20527;-60
2021/06/26 01:50:36;;;;;;;4.73;4.33;;;;;;;;;;5015945;28;20893;-60
2021/06/26 01:53:03;;;;;;;5.37;4.90;;;;;;;;;;5016054;28;20482;-60
2021/06/26 01:55:31;;;;;;;6.33;5.30;;;;;;;;;;5015731;28;21004;-59
2021/06/26 01:58:00;;;;;;;4.77;4.37;;;;;;;;;;5015526;28;20512;-59
2021/06/26 02:00:27;;;;;;;6.17;4.87;;;;;;;;;;5015386;28;20454;-59
2021/06/26 02:02:55;;;;;;;6.40;4.37;;;;;;;;;;5015746;28;20443;-59
2021/06/26 02:05:23;;;;;;;5.13;4.67;;;;;;;;;;5015949;28;20450;-59
2021/06/26 02:07:51;;;;;;;6.93;4.60;;;;;;;;;;5016141;28;20578;-58
2021/06/26 02:10:19;;;;;;;6.10;5.50;;;;;;;;;;5016396;28;20584;-59
2021/06/26 02:12:46;;;;;;;5.60;5.10;;;;;;;;;;5015555;28;20485;-59
2021/06/26 02:15:15;;;;;;;6.90;5.80;;;;;;;;;;5015540;28;20501;-59
2021/06/26 02:17:42;;;;;;;5.27;4.87;;;;;;;;;;5015081;28;20465;-58
2021/06/26 02:20:10;;;;;;;5.57;5.00;;;;;;;;;;5015647;28;20512;-59
2021/06/26 02:22:38;;;;;;;5.67;5.10;;;;;;;;;;5015301;28;20453;-58
2021/06/26 02:25:06;;;;;;;5.93;5.43;;;;;;;;;;5015343;28;20438;-58
2021/06/26 02:27:33;;;;;;;6.27;5.07;;;;;;;;;;5015122;28;20470;-59
2021/06/26 02:30:01;;;;;;;6.10;5.60;;;;;;;;;;5014934;28;20457;-59
2021/06/26 02:32:29;;;;;;;6.70;5.63;;;;;;;;;;5015669;28;20441;-59
2021/06/26 02:34:56;;;;;;;7.33;5.23;;;;;;;;;;5014753;28;20532;-59
2021/06/26 02:37:24;;;;;;;6.53;5.93;;;;;;;;;;5014549;28;20481;-60
2021/06/26 02:39:51;;;;;;;6.00;5.10;;;;;;;;;;5014702;28;20500;-60
2021/06/26 02:42:19;;;;;;;5.47;4.97;;;;;;;;;;5014954;28;20512;-59
2021/06/26 02:44:46;;;;;;;5.87;5.33;;;;;;;;;;5014944;28;20445;-60
2021/06/26 02:47:13;;;;;;;5.70;5.20;;;;;;;;;;5013569;28;20976;-59
2021/06/26 02:49:42;;;;;;;5.90;5.13;;;;;;;;;;5015035;28;20446;-60
2021/06/26 02:52:09;;;;;;;6.60;5.50;;;;;;;;;;5014730;28;20445;-59
2021/06/26 02:54:36;;;;;;;6.33;4.90;;;;;;;;;;5015104;28;20547;-58
2021/06/26 02:57:04;;;;;;;5.73;5.23;;;;;;;;;;5014793;28;20533;-60
2021/06/26 02:59:31;;;;;;;5.40;4.90;;;;;;;;;;5014750;28;20500;-59
2021/06/26 03:01:59;;;;;;;6.10;5.43;;;;;;;;;;5014590;28;20452;-59
2021/06/26 03:04:26;;;;;;;5.77;5.20;;;;;;;;;;5014259;28;20446;-59
2021/06/26 03:06:54;;;;;;;5.87;4.90;;;;;;;;;;5014489;28;20465;-60
2021/06/26 03:09:22;;;;;;;5.90;5.40;;;;;;;;;;5014472;28;20569;-59
2021/06/26 03:11:49;;;;;;;6.40;5.40;;;;;;;;;;5014176;28;20450;-60
2021/06/26 03:14:16;;;;;;;6.80;5.37;;;;;;;;;;5014223;28;20474;-59
2021/06/26 03:16:43;;;;;;;7.17;6.13;;;;;;;;;;5014350;28;20473;-59
2021/06/26 03:19:11;;;;;;;7.37;5.43;;;;;;;;;;5014271;28;20543;-59
2021/06/26 03:21:38;;;;;;;6.30;5.70;;;;;;;;;;5013930;28;20504;-59
2021/06/26 03:24:08;;;;;;;6.70;6.00;;;;;;;;;;5014251;28;20438;-59
2021/06/26 03:26:35;;;;;;;7.50;6.10;;;;;;;;;;5014184;28;20897;-60
2021/06/26 03:29:02;;;;;;;6.70;5.53;;;;;;;;;;5014126;28;20450;-59
2021/06/26 03:31:30;;;;;;;5.93;5.30;;;;;;;;;;5014501;28;20509;-59
2021/06/26 03:33:57;;;;;;;7.67;5.73;;;;;;;;;;5014242;28;20474;-59
2021/06/26 03:36:25;;;;;;;9.30;6.00;;;;;;;;;;5013614;28;20485;-59
2021/06/26 03:38:52;;;;;;;6.47;5.87;;;;;;;;;;5014430;28;20431;-59
2021/06/26 03:41:24;;;;;;;5.60;5.00;;;;;;;;;;5014126;28;20450;-59
2021/06/26 03:43:51;;;;;;;5.37;4.87;;;;;;;;;;5014106;28;20874;-60
2021/06/26 03:46:19;;;;;;;5.77;5.17;;;;;;;;;;5013987;28;20508;-59
2021/06/26 03:48:46;;;;;;;10.70;5.80;;;;;;;;;;5014162;28;20520;-59
2021/06/26 03:51:13;;;;;;;5.80;5.20;;;;;;;;;;5014244;28;20450;-59
2021/06/26 03:53:40;;;;;;;5.80;5.30;;;;;;;;;;5014138;28;20531;-59
2021/06/26 03:56:08;;;;;;;6.97;6.37;;;;;;;;;;5014016;28;20442;-60
2021/06/26 03:58:36;;;;;;;7.13;5.30;;;;;;;;;;5013418;28;20446;-59
2021/06/26 04:01:04;;;;;;;6.47;5.67;;;;;;;;;;5013893;28;20508;-59
2021/06/26 04:03:31;;;;;;;6.53;5.87;;;;;;;;;;5014127;28;20450;-59
2021/06/26 04:08:16;;;;;;;7.13;6.43;;;;;;;;;;5107590;27;1383294;-59
2021/06/26 04:10:44;;;;;;;7.73;6.03;;;;;;;;;;5155552;27;20440;-59
2021/06/26 04:13:11;;;;;;;7.80;5.80;;;;;;;;;;5156108;27;20485;-59
2021/06/26 04:15:38;;;;;;;6.40;5.80;;;;;;;;;;5160730;27;20440;-59
2021/06/26 04:18:06;;;;;;;6.57;5.97;;;;;;;;;;5153294;27;20452;-59
2021/06/26 04:20:33;;;;;;;7.33;6.63;;;;;;;;;;5152662;27;20922;-60
2021/06/26 04:23:00;;;;;;;7.67;6.90;;;;;;;;;;5153724;27;20457;-60
2021/06/26 04:25:29;;;;;;;7.23;6.57;;;;;;;;;;5152724;27;20444;-60
2021/06/26 04:27:56;;;;;;;6.73;6.13;;;;;;;;;;5152551;27;20492;-60
2021/06/26 04:30:24;;;;;;;8.37;7.20;;;;;;;;;;5153465;27;20439;-60
2021/06/26 04:32:51;;;;;;;6.80;6.20;;;;;;;;;;5152755;27;20450;-60
2021/06/26 04:35:20;;;;;;;8.90;6.60;;;;;;;;;;5152766;27;20466;-59
2021/06/26 04:37:48;;;;;;;8.50;7.50;;;;;;;;;;5151764;27;20466;-60
2021/06/26 04:40:16;;;;;;;7.87;7.17;;;;;;;;;;5152103;27;20436;-60
2021/06/26 04:42:45;;;;;;;9.40;7.73;;;;;;;;;;5151864;27;20436;-59
2021/06/26 04:45:13;;;;;;;8.33;7.53;;;;;;;;;;5151731;27;20991;-60
2021/06/26 04:47:41;;;;;;;7.93;7.20;;;;;;;;;;5151856;27;20516;-60
2021/06/26 04:50:09;;;;;;;8.93;8.03;;;;;;;;;;5151571;27;20861;-60
2021/06/26 04:52:36;;;;;;;8.73;7.87;;;;;;;;;;5151575;27;20448;-59
2021/06/26 04:55:04;;;;;;;8.57;7.77;;;;;;;;;;5152549;27;20880;-59
2021/06/26 04:57:31;;;;;;;8.77;7.97;;;;;;;;;;5152014;27;20464;-59
2021/06/26 05:00:00;;;;;;;8.93;8.20;;;;;;;;;;5151386;27;20452;-60
2021/06/26 05:02:27;;;;;;;9.53;8.63;;;;;;;;;;5151160;27;21005;-60
2021/06/26 05:04:54;;;;;;;9.60;8.70;;;;;;;;;;5151099;27;20489;-60
2021/06/26 05:07:22;;;;;;;12.10;9.53;;;;;;;;;;5150911;27;20483;-60
2021/06/26 05:09:49;;;;;;;11.93;10.77;;;;;;;;;;5151431;27;20454;-59
2021/06/26 05:12:16;;;;;;;12.93;10.17;;;;;;;;;;5151254;27;20511;-59
2021/06/26 05:14:43;;;;;;;21.37;9.93;;;;;;;;;;5150974;27;20440;-59
2021/06/26 05:17:12;;;;;;;10.67;9.57;;;;;;;;;;5151107;27;20456;-59
2021/06/26 05:19:39;;;;;;;10.97;9.00;;;;;;;;;;5137070;27;20440;-60
2021/06/26 05:22:06;;;;;;;10.80;9.70;;;;;;;;;;5137439;27;20444;-60
2021/06/26 05:24:34;;;;;;;9.97;8.93;;;;;;;;;;5137166;27;20444;-61
2021/06/26 05:27:01;;;;;;;9.93;9.00;;;;;;;;;;5136824;27;20893;-60
2021/06/26 05:29:28;;;;;;;10.40;9.07;;;;;;;;;;5137080;27;20440;-60
2021/06/26 05:31:55;;;;;;;10.23;9.07;;;;;;;;;;5136772;27;20977;-61
2021/06/26 05:34:24;;;;;;;12.13;9.90;;;;;;;;;;5137058;27;20441;-60
2021/06/26 05:36:51;;;;;;;11.00;9.07;;;;;;;;;;5137995;27;20816;-59
2021/06/26 05:39:19;;;;;;;9.73;8.40;;;;;;;;;;5136845;27;20444;-59
2021/06/26 05:41:46;;;;;;;10.17;9.17;;;;;;;;;;5136474;27;20524;-60
2021/06/26 05:44:13;;;;;;;10.83;9.17;;;;;;;;;;5136995;27;20449;-59
2021/06/26 05:46:41;;;;;;;11.73;10.63;;;;;;;;;;5136724;27;20502;-60
2021/06/26 05:49:08;;;;;;;12.80;11.03;;;;;;;;;;5136488;27;20445;-60
2021/06/26 05:51:37;;;;;;;11.30;10.30;;;;;;;;;;5137327;27;20442;-60
2021/06/26 05:54:04;;;;;;;12.47;11.30;;;;;;;;;;5137523;27;20524;-58
2021/06/26 05:56:32;;;;;;;12.90;11.60;;;;;;;;;;5138073;27;20465;-59
2021/06/26 05:58:59;;;;;;;13.57;12.20;;;;;;;;;;5137977;27;20532;-59
2021/06/26 06:01:27;;;;;;;15.10;12.30;;;;;;;;;;5140817;27;20452;-59
2021/06/26 06:03:54;;;;;;;13.10;11.97;;;;;;;;;;5139101;27;20523;-60
2021/06/26 06:06:21;;;;;;;13.83;12.43;;;;;;;;;;5140626;27;20461;-60
2021/06/26 06:08:50;;;;;;;12.40;11.30;;;;;;;;;;5140927;27;20434;-60
2021/06/26 06:11:17;;;;;;;12.57;11.33;;;;;;;;;;5141050;27;20939;-59
2021/06/26 06:13:44;;;;;;;13.63;12.30;;;;;;;;;;5137608;27;20440;-60
2021/06/26 06:16:12;;;;;;;11.80;10.60;;;;;;;;;;5136981;27;20926;-60
2021/06/26 06:18:39;;;;;;;13.63;12.23;;;;;;;;;;5136546;27;20497;-59
2021/06/26 06:21:06;;;;;;;14.20;12.80;;;;;;;;;;5136105;27;20436;-58
2021/06/26 06:23:34;;;;;;;13.90;12.50;;;;;;;;;;5136504;27;20492;-60
2021/06/26 06:26:02;;;;;;;13.30;12.00;;;;;;;;;;5136247;27;20508;-59
2021/06/26 06:28:30;;;;;;;14.63;13.10;;;;;;;;;;5136463;27;20476;-60
2021/06/26 06:30:57;;;;;;;13.20;11.40;;;;;;;;;;5135043;27;20515;-60
2021/06/26 06:33:24;;;;;;;14.93;12.20;;;;;;;;;;5135791;27;20930;-59
2021/06/26 06:35:51;;;;;;;13.63;12.33;;;;;;;;;;5135890;27;20443;-59
2021/06/26 06:38:18;;;;;;;12.60;11.40;;;;;;;;;;5135827;27;20443;-59
2021/06/26 06:40:46;;;;;;;12.60;11.40;;;;;;;;;;5135862;27;20450;-60
2021/06/26 06:43:14;;;;;;;13.73;11.77;;;;;;;;;;5135147;27;20447;-60
2021/06/26 06:45:42;;;;;;;12.27;11.03;;;;;;;;;;5135309;27;20441;-59
2021/06/26 06:48:09;;;;;;;15.77;12.17;;;;;;;;;;5135083;27;20480;-60
2021/06/26 06:50:36;;;;;;;11.80;10.57;;;;;;;;;;5135628;27;20490;-59
2021/06/26 06:53:03;;;;;;;11.93;10.73;;;;;;;;;;5135520;27;20449;-60
2021/06/26 06:55:31;;;;;;;11.77;10.77;;;;;;;;;;5136214;27;20449;-60
2021/06/26 06:57:58;;;;;;;11.10;10.20;;;;;;;;;;5135135;27;20460;-59
2021/06/26 07:00:27;;;;;;;11.60;10.50;;;;;;;;;;5135524;27;20523;-60
2021/06/26 07:02:54;;;;;;;11.90;10.70;;;;;;;;;;5135385;27;20452;-59
2021/06/26 07:05:21;;;;;;;11.03;9.93;;;;;;;;;;5135125;27;20478;-60
2021/06/26 07:07:49;;;;;;;10.50;9.50;;;;;;;;;;5134857;27;20499;-59
2021/06/26 07:10:16;;;;;;;10.10;8.00;;;;;;;;;;5135025;27;20442;-60
2021/06/26 07:12:43;;;;;;;10.27;9.17;;;;;;;;;;5134893;27;20508;-60
2021/06/26 07:15:11;;;;;;;9.77;8.77;;;;;;;;;;5134984;27;20446;-61
2021/06/26 07:17:40;;;;;;;8.73;7.93;;;;;;;;;;5134907;27;20563;-60
2021/06/26 07:20:08;;;;;;;8.47;7.67;;;;;;;;;;5134843;27;20440;-60
2021/06/26 07:22:35;;;;;;;8.30;7.27;;;;;;;;;;5134905;27;20440;-59
2021/06/26 07:25:03;;;;;;;7.60;6.90;;;;;;;;;;5134622;27;20468;-60
2021/06/26 07:27:30;;;;;;;8.10;7.40;;;;;;;;;;5134197;27;21035;-59
2021/06/26 07:29:57;;;;;;;8.63;7.73;;;;;;;;;;5134594;27;20442;-60
2021/06/26 07:32:24;;;;;;;7.97;7.20;;;;;;;;;;5134820;27;20442;-60
2021/06/26 07:34:53;;;;;;;7.93;7.13;;;;;;;;;;5134731;27;20463;-59
2021/06/26 07:37:20;;;;;;;8.60;7.60;;;;;;;;;;5134475;27;20460;-60
2021/06/26 07:39:47;;;;;;;8.83;7.97;;;;;;;;;;5134580;27;20448;-59
2021/06/26 07:42:15;;;;;;;9.30;7.80;;;;;;;;;;5134469;27;20446;-60
2021/06/26 07:44:42;;;;;;;10.03;8.70;;;;;;;;;;5134971;27;20436;-59
2021/06/26 07:47:09;;;;;;;7.90;7.20;;;;;;;;;;5134272;27;20474;-60
2021/06/26 07:49:37;;;;;;;9.10;7.03;;;;;;;;;;5134120;27;20495;-59
2021/06/26 07:52:06;;;;;;;7.67;6.97;;;;;;;;;;5134524;27;20448;-60
2021/06/26 07:54:33;;;;;;;7.97;7.23;;;;;;;;;;5134167;27;20455;-60
2021/06/26 07:57:00;;;;;;;10.00;8.93;;;;;;;;;;5134626;27;20456;-60
2021/06/26 07:59:28;;;;;;;7.90;7.10;;;;;;;;;;5134050;27;20456;-60
2021/06/26 08:01:55;;;;;;;7.23;6.53;;;;;;;;;;5134312;27;20448;-60
2021/06/26 08:04:22;;;;;;;7.23;6.53;;;;;;;;;;5134624;28;20458;-60
2021/06/26 08:06:49;;;;;;;7.40;6.70;;;;;;;;;;5133761;28;20488;-59
2021/06/26 08:09:18;;;;;;;7.53;6.80;;;;;;;;;;5133899;28;20973;-60
2021/06/26 08:11:45;;;;;;;8.10;7.40;;;;;;;;;;5135214;28;20942;-60
2021/06/26 08:14:12;;;;;;;8.00;6.90;;;;;;;;;;5136710;28;20487;-60
2021/06/26 08:16:40;;;;;;;8.00;6.50;;;;;;;;;;5134572;28;20525;-59
2021/06/26 08:19:07;;;;;;;7.17;6.47;;;;;;;;;;5135301;28;20439;-60
2021/06/26 08:21:34;;;;;;;7.57;6.83;;;;;;;;;;5134782;28;20520;-61
2021/06/26 08:24:01;;;;;;;7.50;6.83;;;;;;;;;;5137424;28;20447;-60
2021/06/26 08:26:30;;;;;;;7.30;6.60;;;;;;;;;;5135789;28;20519;-59
2021/06/26 08:28:57;;;;;;;8.30;6.37;;;;;;;;;;5135056;28;20479;-59
2021/06/26 08:31:25;;;;;;;7.10;6.50;;;;;;;;;;5135391;28;20443;-59
2021/06/26 08:33:52;;;;;;;6.40;5.80;;;;;;;;;;5134761;28;20442;-60
2021/06/26 08:36:19;;;;;;;7.20;6.50;;;;;;;;;;5134619;28;20516;-60
2021/06/26 08:38:46;;;;;;;7.20;6.60;;;;;;;;;;5134185;28;20500;-60
2021/06/26 08:41:14;;;;;;;7.87;6.63;;;;;;;;;;5134250;28;20999;-59
2021/06/26 08:43:44;;;;;;;6.77;6.07;;;;;;;;;;5133665;28;20951;-58
2021/06/26 08:46:11;;;;;;;7.27;6.60;;;;;;;;;;5134000;28;20439;-60
2021/06/26 08:48:39;;;;;;;6.97;6.17;;;;;;;;;;5134135;28;20524;-59
2021/06/26 08:51:06;;;;;;;6.40;5.77;;;;;;;;;;5133967;28;20501;-59
2021/06/26 08:53:34;;;;;;;8.00;7.10;;;;;;;;;;5136664;27;20441;-60
2021/06/26 08:56:01;;;;;;;8.60;6.33;;;;;;;;;;5138712;27;20437;-60
2021/06/26 08:58:28;;;;;;;7.00;6.03;;;;;;;;;;5138864;27;20472;-60
2021/06/26 09:00:57;;;;;;;8.50;7.10;;;;;;;;;;5137788;27;20452;-59
2021/06/26 09:03:24;;;;;;;7.43;5.90;;;;;;;;;;5137487;27;20994;-59
2021/06/26 09:05:52;;;;;;;6.33;5.23;;;;;;;;;;5137913;27;20440;-59
2021/06/26 09:08:20;;;;;;;6.80;6.20;;;;;;;;;;5137209;27;20536;-59
2021/06/26 09:10:48;;;;;;;7.60;6.97;;;;;;;;;;5137509;27;20499;-59
2021/06/26 09:13:22;;;;;;;7.80;5.90;;;;;;;;;;5137335;27;20505;-59
2021/06/26 09:15:49;;;;;;;6.80;6.20;;;;;;;;;;5137346;27;20480;-58
2021/06/26 09:18:19;;;;;;;7.17;6.57;;;;;;;;;;5137931;27;20458;-59
2021/06/26 09:20:49;;;;;;;5.43;4.93;;;;;;;;;;5136887;27;20432;-60
2021/06/26 09:23:20;;;;;;;6.83;6.23;;;;;;;;;;5144457;27;20428;-59
2021/06/26 09:25:48;;;;;;;6.80;6.20;;;;;;;;;;5142685;27;20513;-60
2021/06/26 09:28:23;;;;;;;10.23;6.40;;;;;;;;;;5140653;27;20614;-60
2021/06/26 09:30:52;;;;;;;6.53;5.93;;;;;;;;;;5145691;27;20437;-60
2021/06/26 09:33:22;;;;;;;8.70;7.20;;;;;;;;;;5137240;27;20444;-60
2021/06/26 09:36:00;;;;;;;6.83;6.30;;;;;;;;;;5136606;27;20936;-60
2021/06/26 09:38:27;;;;;;;7.20;6.40;;;;;;;;;;5136772;27;20953;-60
2021/06/26 09:40:55;;;;;;;8.40;5.90;;;;;;;;;;5136702;27;20448;-59
2021/06/26 09:43:31;;;;;;;8.40;6.83;;;;;;;;;;5136458;27;20449;-58
2021/06/26 09:46:06;;;;;;;7.80;6.50;;;;;;;;;;5136622;27;20923;-60
2021/06/26 09:48:34;;;;;;;6.13;5.63;;;;;;;;;;5136560;27;20563;-59
2021/06/26 09:51:01;;;;;;;6.00;5.47;;;;;;;;;;5136445;27;21060;-60
2021/06/26 09:53:29;;;;;;;5.90;5.40;;;;;;;;;;5136451;27;20497;-59
2021/06/26 09:55:56;;;;;;;6.33;5.73;;;;;;;;;;5136151;27;20446;-58
2021/06/26 09:58:23;;;;;;;7.10;6.50;;;;;;;;;;5135540;27;20509;-60
2021/06/26 10:00:50;;;;;;;7.20;5.87;;;;;;;;;;5136210;27;20507;-59
2021/06/26 10:03:18;;;;;;;6.77;5.97;;;;;;;;;;5136323;27;20447;-60
2021/06/26 10:05:48;;;;;;;7.37;6.77;;;;;;;;;;5135942;27;20554;-59
2021/06/26 10:08:16;;;;;;;6.97;6.27;;;;;;;;;;5135649;27;20497;-61
2021/06/26 10:10:43;;;;;;;6.13;5.27;;;;;;;;;;5136313;27;20438;-59
2021/06/26 10:13:13;;;;;;;6.60;5.73;;;;;;;;;;5135963;27;20439;-58
2021/06/26 10:15:40;;;;;;;7.50;5.47;;;;;;;;;;5135555;27;20949;-60
2021/06/26 10:18:07;;;;;;;6.30;5.77;;;;;;;;;;5135785;27;20463;-60
2021/06/26 10:20:37;;;;;;;5.73;5.13;;;;;;;;;;5135571;27;20940;-59
2021/06/26 10:23:06;;;;;;;5.17;4.77;;;;;;;;;;5136422;27;20821;-59
2021/06/26 10:25:34;;;;;;;5.30;4.80;;;;;;;;;;5135809;27;20456;-60
2021/06/26 10:28:05;;;;;;;5.60;5.10;;;;;;;;;;5135896;27;20469;-59
2021/06/26 10:30:34;;;;;;;5.60;5.10;;;;;;;;;;5135992;27;20451;-59
2021/06/26 10:33:02;;;;;;;5.37;4.80;;;;;;;;;;5135879;27;21019;-60
2021/06/26 10:35:29;;;;;;;5.50;5.00;;;;;;;;;;5135859;27;20492;-60
2021/06/26 10:38:05;;;;;;;5.43;4.93;;;;;;;;;;5135630;27;20490;-58
2021/06/26 10:40:41;;;;;;;6.07;5.57;;;;;;;;;;5135308;27;20447;-60
2021/06/26 10:43:16;;;;;;;6.20;5.53;;;;;;;;;;5135704;27;20778;-60
2021/06/26 10:45:44;;;;;;;4.87;4.47;;;;;;;;;;5135585;27;20446;-56
2021/06/26 10:48:18;;;;;;;5.40;4.90;;;;;;;;;;5135343;27;21059;-60
2021/06/26 10:50:46;;;;;;;4.53;4.13;;;;;;;;;;5135107;27;20560;-59
2021/06/26 10:53:24;;;;;;;5.10;4.70;;;;;;;;;;5135097;27;20542;-60
2021/06/26 10:55:59;;;;;;;4.90;4.50;;;;;;;;;;5135399;27;20427;-60
2021/06/26 10:58:28;;;;;;;6.10;4.10;;;;;;;;;;5134999;27;20428;-60
2021/06/26 11:00:56;;;;;;;6.73;6.13;;;;;;;;;;5135164;27;20451;-59
2021/06/26 11:03:25;;;;;;;5.33;4.83;;;;;;;;;;5135307;27;20499;-60
2021/06/26 11:05:53;;;;;;;5.27;4.87;;;;;;;;;;5135156;27;20453;-61
2021/06/26 11:08:20;;;;;;;5.30;4.83;;;;;;;;;;5134622;27;20553;-59
2021/06/26 11:10:54;;;;;;;4.70;4.30;;;;;;;;;;5135060;27;20444;-61
2021/06/26 11:13:24;;;;;;;5.70;5.20;;;;;;;;;;5134488;27;20448;-59
2021/06/26 11:15:51;;;;;;;5.67;5.17;;;;;;;;;;5134623;27;20452;-60
2021/06/26 11:18:19;;;;;;;5.00;4.60;;;;;;;;;;5134257;27;20492;-60
2021/06/26 11:20:47;;;;;;;5.00;4.60;;;;;;;;;;5134447;27;20507;-60
2021/06/26 11:23:16;;;;;;;5.20;4.70;;;;;;;;;;5134800;27;20475;-60
2021/06/26 11:25:44;;;;;;;4.30;3.90;;;;;;;;;;5134936;27;20442;-60
2021/06/26 11:28:12;;;;;;;4.73;4.33;;;;;;;;;;5134527;27;20469;-59
2021/06/26 11:30:43;;;;;;;4.23;3.83;;;;;;;;;;5134483;27;20540;-60
2021/06/26 11:33:10;;;;;;;4.33;3.93;;;;;;;;;;5134279;27;20435;-60
2021/06/26 11:35:38;;;;;;;4.23;3.87;;;;;;;;;;5134336;27;20496;-59
2021/06/26 11:38:06;;;;;;;5.17;4.70;;;;;;;;;;5135881;27;20495;-62
2021/06/26 11:40:34;;;;;;;5.60;5.00;;;;;;;;;;5133842;27;20538;-63
2021/06/26 11:43:04;;;;;;;5.23;4.57;;;;;;;;;;5134368;27;20454;-63
2021/06/26 11:45:32;;;;;;;5.23;4.80;;;;;;;;;;5134516;27;20864;-63
2021/06/26 11:48:05;;;;;;;5.37;4.63;;;;;;;;;;5134100;27;21020;-63
2021/06/26 11:50:33;;;;;;;5.80;5.20;;;;;;;;;;5134059;27;21006;-62
2021/06/26 11:53:10;;;;;;;7.90;7.10;;;;;;;;;;5134455;27;20459;-62
2021/06/26 11:55:38;;;;;;;6.17;5.67;;;;;;;;;;5134173;27;20505;-64
2021/06/26 11:58:05;;;;;;;6.90;6.30;;;;;;;;;;5134460;27;20467;-62
2021/06/26 12:00:32;;;;;;;6.17;5.67;;;;;;;;;;5133654;27;20440;-60
2021/06/26 12:03:00;;;;;;;5.23;4.83;;;;;;;;;;5134073;27;20514;-62
2021/06/26 12:05:29;;;;;;;4.87;4.47;;;;;;;;;;5134880;27;20452;-61
2021/06/26 12:08:04;;;;;;;4.73;4.33;;;;;;;;;;5133528;28;20472;-61
2021/06/26 12:10:32;;;;;;;5.20;4.47;;;;;;;;;;5134148;28;20489;-61
2021/06/26 12:13:00;;;;;;;5.23;4.80;;;;;;;;;;5133722;28;20448;-63
2021/06/26 12:15:27;;;;;;;4.73;4.40;;;;;;;;;;5133313;28;20447;-61
2021/06/26 12:18:04;;;;;;;4.83;4.43;;;;;;;;;;5133864;28;20973;-63
2021/06/26 12:20:36;;;;;;;5.67;5.17;;;;;;;;;;5134152;28;20442;-63
2021/06/26 12:23:07;;;;;;;5.20;4.70;;;;;;;;;;5134155;28;20445;-60
2021/06/26 12:25:39;;;;;;;6.90;4.33;;;;;;;;;;5134230;28;20565;-61
2021/06/26 12:28:09;;;;;;;4.73;4.33;;;;;;;;;;5134300;27;20462;-62
2021/06/26 12:30:36;;;;;;;5.17;4.67;;;;;;;;;;5138148;27;20482;-63
2021/06/26 12:33:05;;;;;;;5.33;4.90;;;;;;;;;;5137840;27;21009;-63
2021/06/26 12:35:32;;;;;;;5.50;5.00;;;;;;;;;;5137909;27;20446;-63
2021/06/26 12:38:01;;;;;;;5.60;5.10;;;;;;;;;;5137555;27;20468;-62
2021/06/26 12:40:29;;;;;;;6.57;5.90;;;;;;;;;;5137623;27;20445;-63
2021/06/26 12:42:59;;;;;;;5.73;5.33;;;;;;;;;;5137203;27;20452;-62
2021/06/26 12:45:28;;;;;;;6.73;6.03;;;;;;;;;;5137168;27;20764;-63
2021/06/26 12:47:59;;;;;;;5.63;5.20;;;;;;;;;;5137208;27;20970;-63
2021/06/26 12:50:31;;;;;;;5.73;5.20;;;;;;;;;;5137249;27;20571;-63
2021/06/26 12:52:59;;;;;;;6.93;6.23;;;;;;;;;;5137509;27;20425;-61
2021/06/26 12:55:27;;;;;;;5.23;4.83;;;;;;;;;;5136982;27;20505;-62
2021/06/26 12:57:57;;;;;;;6.03;4.87;;;;;;;;;;5137649;27;20469;-62
2021/06/26 13:00:25;;;;;;;5.57;4.97;;;;;;;;;;5137267;27;20439;-62
2021/06/26 13:02:52;;;;;;;6.70;6.00;;;;;;;;;;5137441;27;20965;-62
2021/06/26 13:05:23;;;;;;;6.23;5.73;;;;;;;;;;5137825;27;20441;-63
2021/06/26 13:08:01;;;;;;;6.40;5.80;;;;;;;;;;5137947;27;20477;-62
2021/06/26 13:10:30;;;;;;;6.67;6.00;;;;;;;;;;5137385;27;20504;-62
2021/06/26 13:12:57;;;;;;;7.20;6.60;;;;;;;;;;5141086;27;20477;-66
2021/06/26 13:15:25;;;;;;;6.70;6.00;;;;;;;;;;5140713;27;20915;-63
2021/06/26 13:17:52;;;;;;;6.50;5.87;;;;;;;;;;5140426;27;20470;-63
2021/06/26 13:20:19;;;;;;;7.10;6.47;;;;;;;;;;5140114;27;20503;-62
2021/06/26 13:22:47;;;;;;;5.93;5.53;;;;;;;;;;5139998;27;20867;-63
2021/06/26 13:25:15;;;;;;;6.40;5.80;;;;;;;;;;5139195;27;20445;-63
2021/06/26 13:27:46;;;;;;;8.43;7.63;;;;;;;;;;5137026;27;20467;-62
2021/06/26 13:30:14;;;;;;;6.63;5.93;;;;;;;;;;5137117;27;20555;-60
2021/06/26 13:32:41;;;;;;;7.30;6.60;;;;;;;;;;5137215;27;20447;-62
2021/06/26 13:35:09;;;;;;;7.30;6.70;;;;;;;;;;5137090;27;20500;-63
2021/06/26 13:37:36;;;;;;;6.70;5.67;;;;;;;;;;5136530;27;20457;-62
2021/06/26 13:40:05;;;;;;;7.57;6.83;;;;;;;;;;5136336;27;20512;-62
2021/06/26 13:42:32;;;;;;;7.20;6.60;;;;;;;;;;5136433;27;20494;-62
2021/06/26 13:45:00;;;;;;;7.67;6.57;;;;;;;;;;5136353;27;20446;-62
2021/06/26 13:47:28;;;;;;;7.27;5.60;;;;;;;;;;5136134;27;20990;-62
2021/06/26 13:49:55;;;;;;;5.50;5.00;;;;;;;;;;5136371;27;20474;-60
2021/06/26 13:52:22;;;;;;;7.27;6.53;;;;;;;;;;5136598;27;20441;-62
2021/06/26 13:54:49;;;;;;;6.47;5.97;;;;;;;;;;5136523;27;20450;-63
2021/06/26 13:57:17;;;;;;;6.20;5.20;;;;;;;;;;5136422;27;20466;-62
2021/06/26 13:59:44;;;;;;;6.43;5.93;;;;;;;;;;5136244;27;20544;-60
2021/06/26 14:02:12;;;;;;;7.03;6.43;;;;;;;;;;5135760;27;20998;-63
2021/06/26 14:04:40;;;;;;;6.07;5.10;;;;;;;;;;5136470;27;20848;-62
2021/06/26 14:07:07;;;;;;;7.10;6.50;;;;;;;;;;5135952;27;20853;-63
2021/06/26 14:09:34;;;;;;;7.63;7.03;;;;;;;;;;5136419;27;20477;-61
2021/06/26 14:12:01;;;;;;;7.27;5.63;;;;;;;;;;5135759;27;20447;-63
2021/06/26 14:14:29;;;;;;;7.43;5.03;;;;;;;;;;5135579;27;20447;-62
2021/06/26 14:16:56;;;;;;;6.47;5.40;;;;;;;;;;5136064;27;20472;-63
2021/06/26 14:19:25;;;;;;;5.47;4.70;;;;;;;;;;5136269;27;20443;-63
2021/06/26 14:21:52;;;;;;;5.03;4.63;;;;;;;;;;5136515;27;20451;-63
2021/06/26 14:24:20;;;;;;;4.70;4.30;;;;;;;;;;5135790;27;20793;-62
2021/06/26 14:26:47;;;;;;;5.33;4.90;;;;;;;;;;5135731;27;20474;-62
2021/06/26 14:29:14;;;;;;;5.10;4.63;;;;;;;;;;5136142;27;20454;-65
2021/06/26 14:31:42;;;;;;;5.27;4.77;;;;;;;;;;5136069;27;20454;-62
2021/06/26 14:34:09;;;;;;;5.13;4.73;;;;;;;;;;5135557;27;20434;-60
2021/06/26 14:36:38;;;;;;;5.13;4.73;;;;;;;;;;5135321;27;20466;-63
2021/06/26 14:39:05;;;;;;;4.60;4.20;;;;;;;;;;5134968;27;20482;-61
2021/06/26 14:41:33;;;;;;;4.77;4.37;;;;;;;;;;5135211;27;20433;-62
2021/06/26 14:44:01;;;;;;;4.87;4.47;;;;;;;;;;5135255;27;20449;-63
2021/06/26 14:46:28;;;;;;;4.87;4.43;;;;;;;;;;5135231;27;20460;-62
2021/06/26 14:48:56;;;;;;;5.00;4.60;;;;;;;;;;5135289;27;20432;-62